createdAt,value
2022-11-16T00:01:07.387Z,61.43
2022-11-16T00:05:08.786Z,62.39
2022-11-16T00:09:22.039Z,61.65
2022-11-16T00:13:22.659Z,61.59
2022-11-16T00:17:25.909Z,61.33
2022-11-16T00:21:26.631Z,61.51
2022-11-16T00:25:26.711Z,63.26
2022-11-16T00:29:30.188Z,62.48
2022-11-16T00:33:33.577Z,62.24
2022-11-16T00:37:33.927Z,61.92
2022-11-16T00:41:34.211Z,62.32
2022-11-16T00:45:34.307Z,62.31
2022-11-16T00:49:38.492Z,62.38
2022-11-16T00:53:39.389Z,62.23
2022-11-16T00:57:39.728Z,61.67
2022-11-16T01:01:39.992Z,61.78
2022-11-16T01:05:43.137Z,62.03
2022-11-16T01:09:43.244Z,62.30
2022-11-16T01:13:43.351Z,61.87
2022-11-16T01:17:45.552Z,62.14
2022-11-16T01:21:48.244Z,62.04
2022-11-16T01:25:48.408Z,61.71
2022-11-16T01:29:48.692Z,61.73
2022-11-16T01:33:49.321Z,61.48
2022-11-16T01:38:05.023Z,61.27
2022-11-16T01:42:07.577Z,61.28
2022-11-16T01:46:08.184Z,61.89
2022-11-16T01:50:15.974Z,61.94
2022-11-16T01:54:20.566Z,61.63
2022-11-16T01:58:33.290Z,62.57
2022-11-16T02:02:44.788Z,61.93
2022-11-16T02:07:14.527Z,62.29
2022-11-16T02:11:42.719Z,61.48
2022-11-16T02:15:52.180Z,61.14
2022-11-16T02:20:45.230Z,61.36
2022-11-16T02:24:59.572Z,61.23
2022-11-16T02:29:23.694Z,61.03
2022-11-16T02:33:33.367Z,60.74
2022-11-16T02:37:41.210Z,60.59
2022-11-16T02:41:48.486Z,60.97
2022-11-16T02:45:57.176Z,61.08
2022-11-16T02:50:08.388Z,60.87
2022-11-16T02:54:14.399Z,60.54
2022-11-16T02:58:24.075Z,60.60
2022-11-16T03:02:39.178Z,60.37
2022-11-16T03:06:44.181Z,60.16
2022-11-16T03:11:01.032Z,60.21
2022-11-16T03:15:07.626Z,60.18
2022-11-16T03:19:16.387Z,59.98
2022-11-16T03:23:17.582Z,59.85
2022-11-16T03:27:31.779Z,59.94
2022-11-16T03:31:39.182Z,59.94
2022-11-16T03:35:51.972Z,59.65
2022-11-16T03:39:55.473Z,60.03
2022-11-16T03:43:59.595Z,59.76
2022-11-16T03:48:00.073Z,60.15
2022-11-16T03:52:03.160Z,60.11
2022-11-16T03:56:04.812Z,60.03
2022-11-16T04:00:05.246Z,59.99
2022-11-16T04:04:34.218Z,60.49
2022-11-16T04:08:49.812Z,60.39
2022-11-16T04:13:02.815Z,60.65
2022-11-16T04:17:15.501Z,60.65
2022-11-16T04:21:37.202Z,60.20
2022-11-16T04:25:43.714Z,60.49
2022-11-16T04:29:51.220Z,60.28
2022-11-16T04:34:06.681Z,60.49
2022-11-16T04:38:06.944Z,60.56
2022-11-16T04:42:22.415Z,60.53
2022-11-16T04:46:37.482Z,60.64
2022-11-16T04:50:38.443Z,60.77
2022-11-16T04:54:39.838Z,61.12
2022-11-16T04:58:43.260Z,61.05
2022-11-16T05:02:44.273Z,61.40
2022-11-16T05:06:44.528Z,61.30
2022-11-16T05:10:45.167Z,61.29
2022-11-16T05:14:49.365Z,61.22
2022-11-16T05:19:11.129Z,61.41
2022-11-16T05:23:32.523Z,61.47
2022-11-16T05:27:38.603Z,62.27
2022-11-16T05:31:42.159Z,61.92
2022-11-16T05:35:42.975Z,62.20
2022-11-16T05:39:43.503Z,61.84
2022-11-16T05:43:44.024Z,61.72
2022-11-16T05:47:54.594Z,62.05
2022-11-16T05:51:55.392Z,62.27
2022-11-16T05:55:56.027Z,62.50
2022-11-16T05:59:57.361Z,63.56
2022-11-16T06:04:03.140Z,63.70
2022-11-16T06:08:05.492Z,63.78
2022-11-16T06:12:09.345Z,64.18
2022-11-16T06:16:11.082Z,64.82
2022-11-16T06:20:15.267Z,65.06
2022-11-16T06:24:16.912Z,65.29
2022-11-16T06:28:17.523Z,64.87
2022-11-16T06:32:17.710Z,64.33
2022-11-16T06:36:20.474Z,64.95
2022-11-16T06:40:21.922Z,64.40
2022-11-16T06:44:22.472Z,65.04
2022-11-16T06:48:31.225Z,65.24
2022-11-16T06:52:34.507Z,64.81
2022-11-16T06:56:37.431Z,64.69
2022-11-16T07:00:37.790Z,64.73
2022-11-16T07:04:38.468Z,64.78
2022-11-16T07:08:41.888Z,64.62
2022-11-16T07:12:43.892Z,64.52
2022-11-16T07:16:44.966Z,64.81
2022-11-16T07:20:45.180Z,65.48
2022-11-16T07:24:47.980Z,66.22
2022-11-16T07:28:48.811Z,65.97
2022-11-16T07:32:52.890Z,65.67
2022-11-16T07:37:05.683Z,66.10
2022-11-16T07:41:11.941Z,66.31
2022-11-16T07:45:20.437Z,65.52
2022-11-16T07:49:31.292Z,65.64
2022-11-16T07:53:38.501Z,64.97
2022-11-16T07:57:41.378Z,64.75
2022-11-16T08:01:42.796Z,66.47
2022-11-16T08:05:44.820Z,66.92
2022-11-16T08:09:45.551Z,65.87
2022-11-16T08:13:50.836Z,65.40
2022-11-16T08:17:52.459Z,65.17
2022-11-16T08:21:52.586Z,65.26
2022-11-16T08:25:53.410Z,65.49
2022-11-16T08:29:56.242Z,65.79
2022-11-16T08:33:57.233Z,65.87
2022-11-16T08:37:57.462Z,65.41
2022-11-16T08:42:00.170Z,65.88
2022-11-16T08:46:03.343Z,65.10
2022-11-16T08:50:04.271Z,65.53
2022-11-16T08:54:06.475Z,65.53
2022-11-16T08:58:10.175Z,64.64
2022-11-16T09:02:15.497Z,64.56
2022-11-16T09:06:16.859Z,64.24
2022-11-16T09:10:19.125Z,64.59
2022-11-16T09:14:19.229Z,64.18
2022-11-16T09:18:21.886Z,64.64
2022-11-16T09:22:22.033Z,64.60
2022-11-16T09:26:23.329Z,64.88
2022-11-16T09:30:23.698Z,64.52
2022-11-16T09:34:26.676Z,64.28
2022-11-16T09:38:40.309Z,63.91
2022-11-16T09:43:02.265Z,63.82
2022-11-16T09:47:04.971Z,63.83
2022-11-16T09:51:15.155Z,63.89
2022-11-16T09:55:29.116Z,63.28
2022-11-16T09:59:34.761Z,63.13
2022-11-16T10:03:46.280Z,62.99
2022-11-16T10:07:53.407Z,63.04
2022-11-16T10:12:17.720Z,63.71
2022-11-16T10:16:31.249Z,63.19
2022-11-16T10:20:59.984Z,63.21
2022-11-16T10:25:12.279Z,63.09
2022-11-16T10:29:36.582Z,62.57
2022-11-16T10:33:40.743Z,62.71
2022-11-16T10:37:48.974Z,62.90
2022-11-16T10:41:53.278Z,63.28
2022-11-16T10:46:03.161Z,63.80
2022-11-16T10:50:08.125Z,63.75
2022-11-16T10:54:16.011Z,64.26
2022-11-16T10:58:18.733Z,63.58
2022-11-16T11:02:36.547Z,63.36
2022-11-16T11:06:37.056Z,63.48
2022-11-16T11:10:41.121Z,63.24
2022-11-16T11:14:43.835Z,63.35
2022-11-16T11:18:43.947Z,63.46
2022-11-16T11:22:52.475Z,63.33
2022-11-16T11:26:57.044Z,63.46
2022-11-16T11:31:05.682Z,63.31
2022-11-16T11:35:08.001Z,63.00
2022-11-16T11:39:28.347Z,62.96
2022-11-16T11:43:29.827Z,63.00
2022-11-16T11:48:00.712Z,63.46
2022-11-16T11:52:12.108Z,63.63
2022-11-16T11:56:15.369Z,63.19
2022-11-16T12:00:18.515Z,62.00
2022-11-16T12:04:57.661Z,61.85
2022-11-16T12:09:19.207Z,61.74
2022-11-16T12:13:45.489Z,61.97
2022-11-16T12:18:00.757Z,62.19
2022-11-16T12:22:23.716Z,62.43
2022-11-16T12:26:36.981Z,61.74
2022-11-16T12:30:49.010Z,61.76
2022-11-16T12:35:19.765Z,61.11
2022-11-16T12:39:30.018Z,60.54
2022-11-16T12:43:43.975Z,60.61
2022-11-16T12:48:08.714Z,61.18
2022-11-16T12:52:29.272Z,60.10
2022-11-16T12:56:49.061Z,60.39
2022-11-16T13:01:07.109Z,60.88
2022-11-16T13:05:16.425Z,60.43
2022-11-16T13:09:23.972Z,60.28
2022-11-16T13:13:38.823Z,60.18
2022-11-16T13:17:42.479Z,60.26
2022-11-16T13:21:56.476Z,59.57
2022-11-16T13:26:10.212Z,58.95
2022-11-16T13:30:22.997Z,59.46
2022-11-16T13:34:29.013Z,59.35
2022-11-16T13:38:54.926Z,59.59
2022-11-16T13:43:22.690Z,59.79
2022-11-16T13:47:30.731Z,59.66
2022-11-16T13:51:30.982Z,60.04
2022-11-16T13:55:35.317Z,60.41
2022-11-16T13:59:39.141Z,60.68
2022-11-16T14:03:44.757Z,60.80
2022-11-16T14:07:47.489Z,61.08
2022-11-16T14:11:47.642Z,61.46
2022-11-16T14:15:47.813Z,61.36
2022-11-16T14:19:59.496Z,62.24
2022-11-16T14:24:27.246Z,61.41
2022-11-16T14:28:59.232Z,60.84
2022-11-16T14:33:01.389Z,60.44
2022-11-16T14:37:04.798Z,61.35
2022-11-16T14:41:08.933Z,62.02
2022-11-16T14:45:19.425Z,61.73
2022-11-16T14:49:22.067Z,62.17
2022-11-16T14:53:24.962Z,61.75
2022-11-16T14:57:27.606Z,62.24
2022-11-16T15:01:33.094Z,62.12
2022-11-16T15:05:39.323Z,63.13
2022-11-16T15:09:47.045Z,63.33
2022-11-16T15:13:50.181Z,65.47
2022-11-16T15:18:09.364Z,65.27
2022-11-16T15:22:25.591Z,64.79
2022-11-16T15:26:28.359Z,64.83
2022-11-16T15:30:33.075Z,64.60
2022-11-16T15:34:35.105Z,64.31
2022-11-16T15:38:37.641Z,63.77
2022-11-16T15:42:43.669Z,63.71
2022-11-16T15:46:47.199Z,63.84
2022-11-16T15:51:04.312Z,63.59
2022-11-16T15:55:07.686Z,64.09
2022-11-16T15:59:25.347Z,64.12
2022-11-16T16:03:29.090Z,64.10
2022-11-16T16:07:40.039Z,64.62
2022-11-16T16:11:40.311Z,64.96
2022-11-16T16:15:43.197Z,64.69
2022-11-16T16:19:47.524Z,64.10
2022-11-16T16:23:50.065Z,64.15
2022-11-16T16:27:50.169Z,64.77
2022-11-16T16:31:52.835Z,64.58
2022-11-16T16:35:52.944Z,64.66
2022-11-16T16:39:53.036Z,64.71
2022-11-16T16:43:53.114Z,65.24
2022-11-16T16:47:55.816Z,65.69
2022-11-16T16:51:56.033Z,65.93
2022-11-16T16:55:56.158Z,65.51
2022-11-16T16:59:56.566Z,65.32
2022-11-16T17:03:59.600Z,65.20
2022-11-16T17:07:59.940Z,65.24
2022-11-16T17:12:00.063Z,65.22
2022-11-16T17:16:00.248Z,64.95
2022-11-16T17:20:03.666Z,65.85
2022-11-16T17:24:03.842Z,65.83
2022-11-16T17:28:03.952Z,65.84
2022-11-16T17:32:04.687Z,65.41
2022-11-16T17:36:10.148Z,65.30
2022-11-16T17:40:21.182Z,65.27
2022-11-16T17:44:31.156Z,65.16
2022-11-16T17:48:36.367Z,64.87
2022-11-16T17:52:46.103Z,64.47
2022-11-16T17:56:47.528Z,64.24
2022-11-16T18:00:52.330Z,64.61
2022-11-16T18:04:55.600Z,64.55
2022-11-16T18:09:04.429Z,64.81
2022-11-16T18:13:06.821Z,65.04
2022-11-16T18:17:13.390Z,64.63
2022-11-16T18:21:23.601Z,64.38
2022-11-16T18:26:15.150Z,64.18
2022-11-16T18:36:53.376Z,65.63
2022-11-16T18:53:00.584Z,65.36
2022-11-16T19:07:42.179Z,66.25
2022-11-16T19:12:02.181Z,66.85
2022-11-16T19:16:06.027Z,66.04
2022-11-16T19:20:08.186Z,65.83
2022-11-16T19:24:17.213Z,66.08
2022-11-16T19:28:20.114Z,66.14
2022-11-16T19:32:22.871Z,66.94
2022-11-16T19:36:23.786Z,66.26
2022-11-16T19:40:25.262Z,65.81
2022-11-16T19:44:25.545Z,65.95
2022-11-16T19:48:28.349Z,66.24
2022-11-16T19:52:28.480Z,66.21
2022-11-16T19:56:28.662Z,65.98
2022-11-16T20:00:29.090Z,66.10
2022-11-16T20:04:34.417Z,66.06
2022-11-16T20:08:34.594Z,65.42
2022-11-16T20:12:34.872Z,65.79
2022-11-16T20:16:39.201Z,65.87
2022-11-16T20:20:42.245Z,65.76
2022-11-16T20:24:42.413Z,66.10
2022-11-16T20:28:45.733Z,66.52
2022-11-16T20:32:46.160Z,66.65
2022-11-16T20:36:51.352Z,66.56
2022-11-16T20:40:51.758Z,67.07
2022-11-16T20:44:52.087Z,67.26
2022-11-16T20:48:52.841Z,67.01
2022-11-16T20:52:55.548Z,66.87
2022-11-16T20:56:55.699Z,66.95
2022-11-16T21:00:55.867Z,66.78
2022-11-16T21:05:00.040Z,66.73
2022-11-16T21:09:04.797Z,66.44
2022-11-16T21:13:17.438Z,66.83
2022-11-16T21:17:20.701Z,66.38
2022-11-16T21:21:20.989Z,66.62
2022-11-16T21:25:24.200Z,66.43
2022-11-16T21:29:26.067Z,67.01
2022-11-16T21:33:26.456Z,67.02
2022-11-16T21:37:27.218Z,66.64
2022-11-16T21:41:30.715Z,66.35
2022-11-16T21:45:30.828Z,65.75
2022-11-16T21:49:30.875Z,66.16
2022-11-16T21:53:31.061Z,66.52
2022-11-16T21:57:34.015Z,66.72
2022-11-16T22:01:54.167Z,66.96
2022-11-16T22:06:11.831Z,67.76
2022-11-16T22:10:15.289Z,67.78
2022-11-16T22:14:17.970Z,67.86
2022-11-16T22:18:18.215Z,67.82
2022-11-16T22:22:18.439Z,66.21
2022-11-16T22:26:18.540Z,65.28
2022-11-16T22:30:21.912Z,65.77
2022-11-16T22:34:22.073Z,65.28
2022-11-16T22:38:22.187Z,65.51
2022-11-16T22:42:22.592Z,64.57
2022-11-16T22:46:25.377Z,65.83
2022-11-16T22:50:26.283Z,65.56
2022-11-16T22:54:28.713Z,65.77
2022-11-16T22:58:29.558Z,66.65
2022-11-16T23:02:32.293Z,66.00
2022-11-16T23:06:32.543Z,66.53
2022-11-16T23:10:52.772Z,66.46
2022-11-16T23:15:05.310Z,66.57
2022-11-16T23:19:29.654Z,66.67
2022-11-16T23:23:42.215Z,67.38
2022-11-16T23:27:52.897Z,67.49
2022-11-16T23:31:52.998Z,65.88
2022-11-16T23:35:55.620Z,65.79
2022-11-16T23:39:55.843Z,67.32
2022-11-16T23:43:59.324Z,67.08
2022-11-16T23:47:59.430Z,67.06
2022-11-16T23:52:02.101Z,66.46
2022-11-16T23:56:06.318Z,65.71
